Huntsville, AL (35812)

6:55 PM CST on December 17, 2014 (GMT -0600)
APRSWXNET Huntsville AL US | Change Station
CLOSE
Current Station
Personal Weather Station
Location: Huntsville, AL
Elevation: 623 ft
Nearby Weather Stations

Elev 623 ft 34.63 °N, 86.66 °W | Updated 24 minutes ago

Clear
Clear
40 °F
Feels Like 40 °F
N
1
Wind Variable Wind from ENE
Gusts 0.0 mph

Today
High -- | Low -- °F
--% Chance of Precip.
Yesterday
High -- | Low -- °F
Precip. -- in
6:47 AM 4:38 PM
Waning Crescent, 18% visible
Pressure 30.26 in
Visibility 9.0 miles
Clouds Clear
Windchill 40 °F
Dew Point 36 °F
Humidity 84%
Rainfall 0.00 in
Snow Depth Not available.
UV 0 out of 12
Pollen .20 out of 12
Air Quality Not available.
Flu Activity Not available.
METAR KHUA 172358Z AUTO 03005KT 9SM CLR 04/01 A3024 RMK AO2 SLP245 52008

More Conditions Fewer Conditions

Pressure 30.26 in
Visibility 9.0 miles
Clouds Clear
Windchill 40 °F
Dew Point 36 °F
Humidity 84%
Rainfall 0.00 in
Snow Depth Not available.
UV 0 out of 12
Pollen .20 out of 12
Air Quality Not available.
Flu Activity Not available.
METAR KHUA 172358Z AUTO 03005KT 9SM CLR 04/01 A3024 RMK AO2 SLP245 52008

More Conditions Fewer Conditions

10-Day Weather Forecast

Almanac

Astronomy

Dec. 17, 2014 Rise Set
Actual Time
Civil Twilight
Nautical Twilight
Astronomical Twilight
Moon
Length of Visible Light
Length of Day
Tomorrow will be .
, % of the Moon is Illuminated

Today's Extremes

State Highs State Lows

Community

WunderPhotos

Upload Photos

1,778,837 photos uploaded!

WunderBlogs® & News

Nearby

Air Quality

  Air Quality AQ Index Pollutant
Not available.

Snow Depth

Station Depth Elevation

Earthquake Activity

City Distance Mag. Time & Date
Minimum magnitude displayed is 2.5.

Coastal Water Temperatures

Place Temperature

Nearby Weather Stations